ADDS METAR Data INFO
IDs: Format: Raw Decoded Include TAF

Data at: 0430 UTC 21 Nov 2017

KF44 210415Z AUTO 00000KT 10SM CLR 05/02 A3000 RMK AO2
KF44 210355Z AUTO 00000KT 10SM CLR 06/01 A3000 RMK AO2
KF44 210335Z AUTO 00000KT 10SM CLR 05/02 A3000 RMK AO2
KF44 210315Z AUTO 00000KT 10SM CLR 06/02 A2999 RMK AO2
KF44 210255Z AUTO 00000KT 10SM CLR 06/01 A3000 RMK AO2
KF44 210235Z AUTO 00000KT 10SM CLR 06/01 A3000 RMK AO2
KF44 210215Z AUTO 00000KT 10SM CLR 06/01 A3000 RMK AO2
KF44 210155Z AUTO 00000KT 10SM CLR 06/01 A3001 RMK AO2
KF44 210135Z AUTO 00000KT 10SM CLR 06/01 A3001 RMK AO2
KF44 210115Z AUTO 00000KT 10SM CLR 07/01 A3002 RMK AO2
KF44 210055Z AUTO 00000KT 10SM CLR 08/00 A3002 RMK AO2
KF44 210035Z AUTO 00000KT 10SM CLR 08/00 A3002 RMK AO2
KF44 210015Z AUTO 00000KT 10SM CLR 09/00 A3002 RMK AO2
KF44 202355Z AUTO 00000KT 10SM CLR 10/00 A3002 RMK AO2
KF44 202335Z AUTO 00000KT 10SM CLR 11/00 A3002 RMK AO2
KF44 202315Z AUTO 17004KT 10SM CLR 13/00 A3002 RMK AO2
KF44 202255Z AUTO 17006KT 10SM CLR 14/00 A3002 RMK AO2
KF44 202235Z AUTO 17006KT 10SM CLR 15/00 A3002 RMK AO2
KF44 202215Z AUTO 19004KT 10SM CLR 15/M01 A3003 RMK AO2
KF44 202155Z AUTO 16007KT 10SM CLR 16/M01 A3003 RMK AO2
KF44 202135Z AUTO 16009KT 10SM CLR 15/M01 A3004 RMK AO2
KF44 202115Z AUTO 18007KT 150V220 10SM CLR 16/M01 A3004 RMK AO2
KF44 202055Z AUTO 21005G16KT 10SM CLR 15/M01 A3005 RMK AO2
KF44 202035Z AUTO 18009G16KT 10SM CLR 16/M01 A3005 RMK AO2
KF44 202015Z AUTO 16012KT 10SM CLR 16/M01 A3005 RMK AO2
KF44 201955Z AUTO 15012G19KT 10SM CLR 15/M01 A3006 RMK AO2
KF44 201935Z AUTO 18008G14KT 10SM CLR 15/00 A3007 RMK AO2
KF44 201915Z AUTO 15010KT 10SM CLR 15/00 A3009 RMK AO2
KF44 201855Z AUTO 19009KT 140V210 10SM CLR 15/M01 A3011 RMK AO2
KF44 201835Z AUTO 18011G14KT 10SM CLR 15/M01 A3012 RMK AO2
KF44 201815Z AUTO 17009G15KT 10SM CLR 14/M01 A3014 RMK AO2
KF44 201755Z AUTO 19008KT 10SM CLR 13/M01 A3016 RMK AO2
KF44 201735Z AUTO 18009G14KT 10SM CLR 13/M01 A3017 RMK AO2
KF44 201715Z AUTO 17010KT 10SM CLR 13/00 A3019 RMK AO2
KF44 201655Z AUTO 19008KT 10SM CLR 13/M01 A3020 RMK AO2
KF44 201635Z AUTO 18008KT 10SM CLR 12/00 A3021 RMK AO2
KF44 201615Z AUTO 18008KT 10SM CLR 11/00 A3021 RMK AO2 LTG DSNT S
KF44 201555Z AUTO 16009KT 10SM CLR 11/00 A3022 RMK AO2
KF44 201535Z AUTO 17007KT 10SM CLR 09/00 A3022 RMK AO2
KF44 201515Z AUTO 17007KT 10SM CLR 08/00 A3024 RMK AO2
KF44 201455Z AUTO 00000KT 10SM CLR 06/01 A3024 RMK AO2
KF44 201435Z AUTO 00000KT 10SM CLR 04/01 A3022 RMK AO2
KF44 201415Z AUTO 00000KT 10SM CLR 03/00 A3022 RMK AO2
KF44 201355Z AUTO 00000KT 10SM CLR 01/00 A3022 RMK AO2
KF44 201335Z AUTO 00000KT 10SM CLR 00/00 A3021 RMK AO2
KF44 201315Z AUTO 00000KT 10SM CLR 00/00 A3021 RMK AO2
KF44 201255Z AUTO 00000KT 10SM CLR 00/00 A3020 RMK AO2
KF44 201235Z AUTO 00000KT 10SM CLR 00/00 A3020 RMK AO2
KF44 201215Z AUTO 00000KT 10SM CLR 00/00 A3020 RMK AO2
KF44 201155Z AUTO 00000KT 10SM CLR 00/00 A3019 RMK AO2
KF44 201135Z AUTO 00000KT 10SM CLR 00/M01 A3019 RMK AO2
KF44 201115Z AUTO 00000KT 10SM CLR 00/00 A3019 RMK AO2
KF44 201055Z AUTO 00000KT 10SM CLR 00/00 A3020 RMK AO2
KF44 201035Z AUTO 00000KT 10SM CLR 00/00 A3020 RMK AO2
KF44 201015Z AUTO 00000KT 10SM CLR 00/00 A3020 RMK AO2
KF44 200955Z AUTO 00000KT 10SM CLR 00/00 A3019 RMK AO2
KF44 200935Z AUTO 00000KT 10SM CLR 00/00 A3020 RMK AO2
KF44 200915Z AUTO 00000KT 10SM CLR 00/00 A3021 RMK AO2
KF44 200855Z AUTO 00000KT 10SM CLR 00/00 A3021 RMK AO2
KF44 200835Z AUTO 00000KT 10SM CLR 00/00 A3021 RMK AO2
KF44 200815Z AUTO 00000KT 10SM CLR 00/00 A3021 RMK AO2
KF44 200755Z AUTO 00000KT 10SM CLR 00/00 A3021 RMK AO2
KF44 200735Z AUTO 00000KT 10SM CLR 00/00 A3022 RMK AO2
KF44 200715Z AUTO 00000KT 10SM CLR 00/00 A3022 RMK AO2
KF44 200655Z AUTO 00000KT 10SM CLR 01/00 A3023 RMK AO2
KF44 200635Z AUTO 00000KT 10SM CLR 01/00 A3023 RMK AO2
KF44 200615Z AUTO 00000KT 10SM CLR 01/00 A3024 RMK AO2
KF44 200555Z AUTO 00000KT 10SM CLR 01/00 A3023 RMK AO2
KF44 200535Z AUTO 00000KT 10SM CLR 01/00 A3023 RMK AO2
KF44 200515Z AUTO 00000KT 10SM CLR 02/01 A3024 RMK AO2
KF44 200455Z AUTO 00000KT 10SM CLR 02/00 A3024 RMK AO2
KF44 200435Z AUTO 00000KT 10SM CLR 02/00 A3025 RMK AO2
KF44 200415Z AUTO 00000KT 10SM CLR 02/00 A3024 RMK AO2
KF44 200355Z AUTO 00000KT 10SM CLR 02/01 A3025 RMK AO2
KF44 200335Z AUTO 00000KT 10SM CLR 02/01 A3025 RMK AO2
KF44 200315Z AUTO 00000KT 10SM CLR 03/01 A3025 RMK AO2
KF44 200255Z AUTO 00000KT 10SM CLR 03/01 A3024 RMK AO2
KF44 200235Z AUTO 00000KT 10SM CLR 03/01 A3024 RMK AO2
KF44 200215Z AUTO 00000KT 10SM CLR 03/00 A3024 RMK AO2
KF44 200155Z AUTO 00000KT 10SM CLR 03/00 A3024 RMK AO2
KF44 200135Z AUTO 00000KT 10SM CLR 05/00 A3024 RMK AO2
KF44 200115Z AUTO 00000KT 3SM HZ CLR 05/00 A3024 RMK AO2
KF44 200055Z AUTO 00000KT 3SM HZ CLR 06/00 A3024 RMK AO2
KF44 200035Z AUTO 00000KT 10SM CLR 06/00 A3024 RMK AO2
KF44 200015Z AUTO 00000KT 10SM CLR 07/00 A3023 RMK AO2
KF44 192355Z AUTO 00000KT 10SM CLR 08/00 A3022 RMK AO2
KF44 192335Z AUTO 00000KT 10SM CLR 10/00 A3022 RMK AO2
KF44 192315Z AUTO 00000KT 10SM CLR 11/M02 A3022 RMK AO2
KF44 192255Z AUTO 00000KT 10SM CLR 12/M01 A3024 RMK AO2
KF44 192235Z AUTO 00000KT 10SM CLR 13/M03 A3024 RMK AO2
KF44 192215Z AUTO 36004KT 10SM CLR 13/M04 A3023 RMK AO2
KF44 192155Z AUTO 03005KT 10SM CLR 14/M05 A3024 RMK AO2
KF44 192135Z AUTO 34003KT 10SM CLR 14/M05 A3024 RMK AO2
KF44 192115Z AUTO 34005KT 10SM CLR 15/M04 A3024 RMK AO2
KF44 192055Z AUTO 03007KT 350V050 10SM CLR 15/M05 A3024 RMK AO2
KF44 192035Z AUTO 36006KT 10SM CLR 15/M05 A3024 RMK AO2
KF44 192015Z AUTO 07004KT 10SM CLR 15/M04 A3025 RMK AO2
KF44 191955Z AUTO 35006KT 10SM CLR 15/M05 A3026 RMK AO2
KF44 191935Z AUTO 02007KT 10SM CLR 14/M05 A3027 RMK AO2
KF44 191915Z AUTO 02008KT 010V070 10SM CLR 14/M03 A3028 RMK AO2
KF44 191855Z AUTO 36009G14KT 10SM CLR 14/M03 A3029 RMK AO2
KF44 191835Z AUTO 01009G14KT 10SM CLR 14/M03 A3030 RMK AO2
KF44 191815Z AUTO 36008KT 10SM CLR 13/M04 A3032 RMK AO2
KF44 191755Z AUTO 03010G16KT 10SM CLR 13/M05 A3032 RMK AO2
KF44 191735Z AUTO 35008G16KT 10SM CLR 13/M04 A3034 RMK AO2
KF44 191715Z AUTO 02006G15KT 10SM CLR 13/M03 A3035 RMK AO2
KF44 191655Z AUTO 01008G14KT 10SM CLR 12/M02 A3036 RMK AO2
KF44 191635Z AUTO 02009G15KT 10SM CLR 12/M02 A3037 RMK AO2